createdAt,value
2022-08-25T00:00:17.309Z,97724.66
2022-08-25T00:02:54.898Z,97714.78
2022-08-25T00:05:29.010Z,97716.09
2022-08-25T00:07:57.724Z,97722.91
2022-08-25T00:10:25.706Z,97727.81
2022-08-25T00:12:53.584Z,97713.63
2022-08-25T00:15:22.915Z,97711.16
2022-08-25T00:17:52.430Z,97710.84
2022-08-25T00:20:20.617Z,97713.84
2022-08-25T00:22:49.398Z,97710.81
2022-08-25T00:25:19.066Z,97713.25
2022-08-25T00:27:48.192Z,97711.88
2022-08-25T00:30:17.410Z,97710.72
2022-08-25T00:32:55.224Z,97721.84
2022-08-25T00:35:26.579Z,97721.25
2022-08-25T00:37:54.775Z,97724.44
2022-08-25T00:40:25.716Z,97722.41
2022-08-25T00:42:54.512Z,97730.25
2022-08-25T00:45:23.311Z,97724.44
2022-08-25T00:47:51.120Z,97728.50
2022-08-25T00:50:19.929Z,97722.97
2022-08-25T00:52:54.107Z,97718.31
2022-08-25T00:55:31.064Z,97719.34
2022-08-25T00:58:20.270Z,97720.09
2022-08-25T01:00:52.304Z,97718.41
2022-08-25T01:03:23.797Z,97721.56
2022-08-25T01:05:55.106Z,97714.16
2022-08-25T01:08:29.132Z,97714.56
2022-08-25T01:11:02.635Z,97711.53
2022-08-25T01:13:47.652Z,97709.56
2022-08-25T01:16:16.870Z,97709.50
2022-08-25T01:18:56.484Z,97708.88
2022-08-25T01:21:27.445Z,97706.09
2022-08-25T01:23:58.727Z,97710.16
2022-08-25T01:26:33.410Z,97696.25
2022-08-25T01:29:22.795Z,97702.78
2022-08-25T01:32:06.124Z,97700.06
2022-08-25T01:34:37.565Z,97707.66
2022-08-25T01:37:05.914Z,97712.78
2022-08-25T01:39:36.654Z,97714.13
2022-08-25T01:42:23.989Z,97713.28
2022-08-25T01:44:51.808Z,97710.50
2022-08-25T01:47:19.665Z,97718.84
2022-08-25T01:49:47.499Z,97712.50
2022-08-25T01:52:32.214Z,97712.25
2022-08-25T01:55:00.006Z,97716.06
2022-08-25T01:57:31.615Z,97719.75
2022-08-25T01:59:59.457Z,97707.25
2022-08-25T02:02:28.153Z,97715.88
2022-08-25T02:04:59.317Z,97715.31
2022-08-25T02:07:28.027Z,97718.75
2022-08-25T02:09:55.831Z,97715.22
2022-08-25T02:12:26.606Z,97723.06
2022-08-25T02:14:54.371Z,97718.91
2022-08-25T02:17:22.124Z,97722.41
2022-08-25T02:19:50.070Z,97717.72
2022-08-25T02:22:18.900Z,97725.31
2022-08-25T02:24:46.773Z,97722.00
2022-08-25T02:27:14.644Z,97712.19
2022-08-25T02:29:42.523Z,97715.97
2022-08-25T02:32:11.388Z,97715.06
2022-08-25T02:34:41.534Z,97702.53
2022-08-25T02:37:09.405Z,97699.00
2022-08-25T02:39:37.209Z,97701.16
2022-08-25T02:42:06.832Z,97699.41
2022-08-25T02:44:35.500Z,97699.41
2022-08-25T02:47:03.518Z,97701.28
2022-08-25T02:49:32.167Z,97696.09
2022-08-25T02:52:00.623Z,97693.66
2022-08-25T02:54:29.496Z,97699.00
2022-08-25T02:56:57.266Z,97701.94
2022-08-25T02:59:25.094Z,97697.84
2022-08-25T03:01:52.854Z,97700.47
2022-08-25T03:04:20.722Z,97705.31
2022-08-25T03:06:48.582Z,97704.50
2022-08-25T03:09:17.069Z,97700.88
2022-08-25T03:11:44.888Z,97696.19
2022-08-25T03:14:12.938Z,97697.09
2022-08-25T03:16:43.002Z,97694.06
2022-08-25T03:19:14.560Z,97696.38
2022-08-25T03:21:42.340Z,97695.13
2022-08-25T03:24:10.129Z,97699.56
2022-08-25T03:26:54.141Z,97686.94
2022-08-25T03:29:32.880Z,97699.13
2022-08-25T03:32:01.246Z,97699.28
2022-08-25T03:34:31.102Z,97703.22
2022-08-25T03:36:59.470Z,97697.44
2022-08-25T03:39:27.850Z,97697.44
2022-08-25T03:41:55.704Z,97688.22
2022-08-25T03:44:23.595Z,97684.66
2022-08-25T03:46:52.760Z,97681.38
2022-08-25T03:49:23.849Z,97675.38
2022-08-25T03:51:53.943Z,97680.78
2022-08-25T03:54:25.579Z,97677.25
2022-08-25T03:56:54.069Z,97674.53
2022-08-25T03:59:21.890Z,97679.13
2022-08-25T04:01:54.439Z,97679.63
2022-08-25T04:04:23.511Z,97683.97
2022-08-25T04:06:51.315Z,97670.66
2022-08-25T04:09:19.091Z,97666.06
2022-08-25T04:11:47.162Z,97677.97
2022-08-25T04:14:21.492Z,97677.16
2022-08-25T04:16:50.142Z,97677.63
2022-08-25T04:19:17.997Z,97683.31
2022-08-25T04:21:46.058Z,97686.50
2022-08-25T04:24:15.231Z,97675.06
2022-08-25T04:26:50.883Z,97676.72
2022-08-25T04:29:23.857Z,97676.47
2022-08-25T04:31:53.479Z,97680.03
2022-08-25T04:34:30.296Z,97680.50
2022-08-25T04:37:23.900Z,97688.41
2022-08-25T04:39:51.708Z,97679.09
2022-08-25T04:42:19.703Z,97682.28
2022-08-25T04:44:47.723Z,97686.88
2022-08-25T04:47:15.642Z,97689.84
2022-08-25T04:49:43.539Z,97682.97
2022-08-25T04:52:14.525Z,97688.88
2022-08-25T04:54:43.961Z,97696.19
2022-08-25T04:57:11.867Z,97695.13
2022-08-25T04:59:39.935Z,97693.25
2022-08-25T05:02:07.846Z,97696.78
2022-08-25T05:04:37.148Z,97695.69
2022-08-25T05:07:05.530Z,97693.25
2022-08-25T05:09:33.376Z,97689.47
2022-08-25T05:12:03.127Z,97692.19
2022-08-25T05:14:32.602Z,97689.22
2022-08-25T05:17:00.686Z,97681.22
2022-08-25T05:19:28.647Z,97678.81
2022-08-25T05:21:57.729Z,97673.75
2022-08-25T05:24:28.089Z,97667.59
2022-08-25T05:26:56.628Z,97672.31
2022-08-25T05:29:24.670Z,97672.06
2022-08-25T05:31:53.438Z,97672.66
2022-08-25T05:34:22.308Z,97665.66
2022-08-25T05:36:51.163Z,97659.50
2022-08-25T05:39:19.001Z,97655.72
2022-08-25T05:41:46.905Z,97650.63
2022-08-25T05:44:19.136Z,97656.41
2022-08-25T05:46:49.894Z,97659.19
2022-08-25T05:49:18.680Z,97664.16
2022-08-25T05:51:46.542Z,97658.25
2022-08-25T05:54:14.484Z,97656.34
2022-08-25T05:56:42.244Z,97659.41
2022-08-25T05:59:10.125Z,97653.69
2022-08-25T06:02:05.579Z,97661.13
2022-08-25T06:04:33.624Z,97659.91
2022-08-25T06:07:01.490Z,97664.50
2022-08-25T06:09:29.420Z,97667.34
2022-08-25T06:11:57.437Z,97673.13
2022-08-25T06:14:25.655Z,97673.69
2022-08-25T06:16:53.554Z,97670.22
2022-08-25T06:19:23.524Z,97665.13
2022-08-25T06:21:56.162Z,97668.41
2022-08-25T06:24:26.619Z,97666.53
2022-08-25T06:26:54.923Z,97668.75
2022-08-25T06:29:22.891Z,97670.16
2022-08-25T06:31:51.154Z,97669.41
2022-08-25T06:34:19.785Z,97667.84
2022-08-25T06:36:51.898Z,97666.28
2022-08-25T06:39:20.918Z,97669.56
2022-08-25T06:41:56.516Z,97668.56
2022-08-25T06:44:27.765Z,97667.59
2022-08-25T06:46:55.994Z,97673.63
2022-08-25T06:49:27.844Z,97673.44
2022-08-25T06:51:56.104Z,97671.94
2022-08-25T06:54:23.871Z,97663.00
2022-08-25T06:56:51.658Z,97667.47
2022-08-25T06:59:19.504Z,97661.06
2022-08-25T07:01:50.105Z,97665.50
2022-08-25T07:04:18.660Z,97664.97
2022-08-25T07:06:46.865Z,97662.00
2022-08-25T07:09:15.533Z,97666.44
2022-08-25T07:11:45.678Z,97654.22
2022-08-25T07:14:16.881Z,97648.59
2022-08-25T07:16:49.324Z,97647.00
2022-08-25T07:19:21.154Z,97645.41
2022-08-25T07:21:54.226Z,97646.03
2022-08-25T07:24:23.572Z,97643.88
2022-08-25T07:26:51.963Z,97645.03
2022-08-25T07:29:32.696Z,97644.28
2022-08-25T07:32:02.738Z,97635.56
2022-08-25T07:34:52.521Z,97639.69
2022-08-25T07:37:47.917Z,97643.31
2022-08-25T07:40:21.628Z,97640.91
2022-08-25T07:42:52.059Z,97646.34
2022-08-25T07:45:22.038Z,97645.84
2022-08-25T07:47:51.740Z,97641.22
2022-08-25T07:50:20.527Z,97641.28
2022-08-25T07:52:53.869Z,97641.31
2022-08-25T07:55:24.946Z,97651.47
2022-08-25T07:57:57.209Z,97653.41
2022-08-25T08:00:30.344Z,97649.94
2022-08-25T08:02:59.891Z,97643.75
2022-08-25T08:05:29.068Z,97642.66
2022-08-25T08:07:58.381Z,97646.75
2022-08-25T08:10:48.078Z,97648.72
2022-08-25T08:13:18.363Z,97651.78
2022-08-25T08:15:47.679Z,97640.13
2022-08-25T08:18:16.407Z,97632.50
2022-08-25T08:20:48.250Z,97633.38
2022-08-25T08:23:17.780Z,97641.34
2022-08-25T08:25:45.636Z,97650.38
2022-08-25T08:28:13.419Z,97639.50
2022-08-25T08:30:53.700Z,97637.91
2022-08-25T08:33:24.296Z,97642.06
2022-08-25T08:36:11.838Z,97638.81
2022-08-25T08:38:42.745Z,97646.22
2022-08-25T08:45:03.773Z,97630.19
2022-08-25T08:47:58.303Z,97636.78
2022-08-25T08:51:02.209Z,97630.22
2022-08-25T08:54:06.633Z,97625.38
2022-08-25T08:56:48.984Z,97622.94
2022-08-25T08:59:30.023Z,97616.66
2022-08-25T09:02:01.903Z,97619.69
2022-08-25T09:04:37.756Z,97622.16
2022-08-25T09:07:21.667Z,97623.56
2022-08-25T09:09:52.365Z,97627.66
2022-08-25T09:13:03.123Z,97626.59
2022-08-25T09:16:08.005Z,97625.50
2022-08-25T09:19:03.402Z,97629.09
2022-08-25T09:21:50.871Z,97614.63
2022-08-25T09:25:08.803Z,97619.28
2022-08-25T09:28:03.774Z,97612.19
2022-08-25T09:31:12.573Z,97611.13
2022-08-25T09:33:41.106Z,97609.50
2022-08-25T09:36:09.295Z,97603.22
2022-08-25T09:38:37.629Z,97605.16
2022-08-25T09:41:08.931Z,97597.22
2022-08-25T09:43:43.125Z,97596.41
2022-08-25T09:46:27.128Z,97594.50
2022-08-25T09:49:10.829Z,97589.88
2022-08-25T09:51:42.213Z,97591.78
2022-08-25T09:54:13.931Z,97586.03
2022-08-25T09:57:02.128Z,97587.13
2022-08-25T09:59:37.244Z,97592.88
2022-08-25T10:02:28.511Z,97587.13
2022-08-25T10:04:57.188Z,97582.47
2022-08-25T10:07:32.448Z,97586.03
2022-08-25T10:10:16.129Z,97587.69
2022-08-25T10:12:51.211Z,97578.69
2022-08-25T10:15:29.431Z,97573.44
2022-08-25T10:18:29.782Z,97563.31
2022-08-25T10:21:07.802Z,97557.31
2022-08-25T10:23:47.426Z,97559.47
2022-08-25T10:27:36.927Z,97553.16
2022-08-25T10:30:52.532Z,97555.31
2022-08-25T10:33:58.007Z,97553.38
2022-08-25T10:36:47.164Z,97549.78
2022-08-25T10:39:44.459Z,97547.06
2022-08-25T10:42:56.843Z,97550.34
2022-08-25T10:45:46.014Z,97548.16
2022-08-25T10:48:53.934Z,97544.81
2022-08-25T10:51:40.157Z,97543.16
2022-08-25T10:54:29.119Z,97529.44
2022-08-25T10:57:09.019Z,97532.44
2022-08-25T11:00:04.301Z,97529.41
2022-08-25T11:02:58.068Z,97511.56
2022-08-25T11:05:40.404Z,97516.44
2022-08-25T11:08:20.180Z,97515.91
2022-08-25T11:11:00.948Z,97508.19
2022-08-25T11:13:50.757Z,97505.66
2022-08-25T11:16:34.099Z,97507.34
2022-08-25T11:19:21.213Z,97508.41
2022-08-25T11:21:56.653Z,97502.94
2022-08-25T11:25:18.481Z,97503.19
2022-08-25T11:28:31.090Z,97495.75
2022-08-25T11:31:02.868Z,97494.38
2022-08-25T11:33:33.695Z,97495.75
2022-08-25T11:36:16.169Z,97494.28
2022-08-25T11:39:16.747Z,97500.78
2022-08-25T11:42:16.394Z,97485.13
2022-08-25T11:45:07.922Z,97481.75
2022-08-25T11:48:06.650Z,97482.22
2022-08-25T11:51:00.647Z,97484.09
2022-08-25T11:53:48.470Z,97488.72
2022-08-25T11:56:40.231Z,97488.41
2022-08-25T11:59:09.086Z,97478.50
2022-08-25T12:01:40.111Z,97479.56
2022-08-25T12:04:13.245Z,97477.88
2022-08-25T12:07:07.452Z,97479.44
2022-08-25T12:09:55.249Z,97474.13
2022-08-25T12:12:46.813Z,97470.22
2022-08-25T12:15:26.947Z,97469.09
2022-08-25T12:18:23.165Z,97464.94
2022-08-25T12:20:55.198Z,97461.13
2022-08-25T12:23:36.251Z,97472.25
2022-08-25T12:26:46.570Z,97463.78
2022-08-25T12:29:50.944Z,97454.44
2022-08-25T12:32:58.609Z,97454.50
2022-08-25T12:35:55.945Z,97451.88
2022-08-25T12:38:51.858Z,97456.81
2022-08-25T12:41:22.646Z,97449.25
2022-08-25T12:44:09.090Z,97444.28
2022-08-25T12:46:39.596Z,97441.00
2022-08-25T12:49:31.455Z,97440.72
2022-08-25T12:52:06.945Z,97433.59
2022-08-25T12:54:52.722Z,97436.56
2022-08-25T12:57:58.104Z,97440.88
2022-08-25T13:00:52.649Z,97445.44
2022-08-25T13:03:49.805Z,97439.72
2022-08-25T13:07:09.203Z,97438.28
2022-08-25T13:09:58.782Z,97431.97
2022-08-25T13:13:01.639Z,97432.69
2022-08-25T13:15:47.122Z,97429.28
2022-08-25T13:18:28.857Z,97432.38
2022-08-25T13:21:30.557Z,97423.19
2022-08-25T13:26:57.804Z,97419.47
2022-08-25T13:29:29.851Z,97424.66
2022-08-25T13:32:09.206Z,97411.22
2022-08-25T13:34:42.590Z,97417.06
2022-08-25T13:37:29.596Z,97407.97
2022-08-25T13:40:25.857Z,97409.03
2022-08-25T13:43:03.038Z,97407.13
2022-08-25T13:45:41.591Z,97403.06
2022-08-25T13:48:23.056Z,97389.75
2022-08-25T13:51:09.264Z,97389.81
2022-08-25T13:53:40.515Z,97390.75
2022-08-25T13:56:08.504Z,97386.84
2022-08-25T13:58:45.296Z,97386.97
2022-08-25T14:01:48.573Z,97383.81
2022-08-25T14:04:32.491Z,97382.16
2022-08-25T14:07:09.259Z,97362.69
2022-08-25T14:09:54.351Z,97386.28
2022-08-25T14:12:46.770Z,97380.66
2022-08-25T14:15:17.557Z,97381.94
2022-08-25T14:18:19.159Z,97383.19
2022-08-25T14:20:53.528Z,97386.03
2022-08-25T14:23:29.139Z,97380.75
2022-08-25T14:25:58.330Z,97380.06
2022-08-25T14:28:30.319Z,97373.94
2022-08-25T14:31:33.680Z,97364.13
2022-08-25T14:34:12.303Z,97368.56
2022-08-25T14:36:40.332Z,97363.81
2022-08-25T14:39:09.051Z,97364.91
2022-08-25T14:41:40.815Z,97362.56
2022-08-25T14:44:10.346Z,97358.03
2022-08-25T14:46:44.585Z,97353.41
2022-08-25T14:49:24.690Z,97351.84
2022-08-25T14:51:53.932Z,97353.50
2022-08-25T14:54:27.510Z,97354.00
2022-08-25T14:56:56.672Z,97354.31
2022-08-25T14:59:24.610Z,97344.84
2022-08-25T15:01:52.689Z,97340.59
2022-08-25T15:04:28.540Z,97343.88
2022-08-25T15:07:02.859Z,97339.47
2022-08-25T15:09:33.517Z,97341.91
2022-08-25T15:12:48.220Z,97330.78
2022-08-25T15:15:22.047Z,97333.06
2022-08-25T15:17:50.624Z,97328.50
2022-08-25T15:20:19.298Z,97327.91
2022-08-25T15:22:48.237Z,97326.50
2022-08-25T15:25:16.597Z,97329.03
2022-08-25T15:27:46.051Z,97323.78
2022-08-25T15:30:15.059Z,97319.63
2022-08-25T15:32:43.336Z,97318.91
2022-08-25T15:35:12.411Z,97320.28
2022-08-25T15:37:44.755Z,97329.28
2022-08-25T15:40:14.456Z,97317.09
2022-08-25T15:42:42.822Z,97312.72
2022-08-25T15:45:14.702Z,97304.03
2022-08-25T15:47:43.145Z,97308.31
2022-08-25T15:50:21.971Z,97306.25
2022-08-25T15:52:51.860Z,97311.72
2022-08-25T15:55:20.099Z,97308.69
2022-08-25T15:57:49.752Z,97303.63
2022-08-25T16:00:19.141Z,97305.72
2022-08-25T16:02:46.956Z,97307.84
2022-08-25T16:05:16.528Z,97302.53
2022-08-25T16:07:46.252Z,97305.94
2022-08-25T16:10:20.077Z,97297.00
2022-08-25T16:12:48.058Z,97308.31
2022-08-25T16:15:16.158Z,97310.63
2022-08-25T16:17:46.999Z,97303.34
2022-08-25T16:20:19.938Z,97313.09
2022-08-25T16:22:49.507Z,97307.75
2022-08-25T16:25:19.095Z,97312.63
2022-08-25T16:27:48.447Z,97301.19
2022-08-25T16:30:17.584Z,97297.34
2022-08-25T16:32:46.781Z,97299.91
2022-08-25T16:35:14.822Z,97300.13
2022-08-25T16:37:42.651Z,97296.28
2022-08-25T16:40:14.869Z,97292.59
2022-08-25T16:42:43.323Z,97285.13
2022-08-25T16:45:12.088Z,97292.81
2022-08-25T16:47:42.632Z,97286.81
2022-08-25T16:50:11.525Z,97281.97
2022-08-25T16:52:59.309Z,97275.50
2022-08-25T16:56:04.446Z,97280.50
2022-08-25T16:58:34.587Z,97283.63
2022-08-25T17:01:11.416Z,97280.03
2022-08-25T17:03:44.079Z,97282.47
2022-08-25T17:06:14.256Z,97283.97
2022-08-25T17:08:43.158Z,97271.13
2022-08-25T17:11:16.809Z,97275.47
2022-08-25T17:13:49.755Z,97273.69
2022-08-25T17:16:23.071Z,97268.13
2022-08-25T17:18:52.569Z,97282.28
2022-08-25T17:21:24.606Z,97277.19
2022-08-25T17:23:55.415Z,97278.91
2022-08-25T17:26:27.709Z,97281.97
2022-08-25T17:29:00.833Z,97278.53
2022-08-25T17:31:30.878Z,97285.47
2022-08-25T17:33:59.402Z,97281.34
2022-08-25T17:36:27.788Z,97282.41
2022-08-25T17:38:56.715Z,97285.13
2022-08-25T17:41:25.138Z,97284.25
2022-08-25T17:43:52.956Z,97293.28
2022-08-25T17:46:22.074Z,97288.22
2022-08-25T17:48:50.170Z,97294.97
2022-08-25T17:51:18.421Z,97287.78
2022-08-25T17:53:47.012Z,97288.22
2022-08-25T17:56:18.876Z,97285.69
2022-08-25T17:58:47.855Z,97291.94
2022-08-25T18:01:22.299Z,97287.97
2022-08-25T18:03:50.622Z,97297.19
2022-08-25T18:06:21.946Z,97284.47
2022-08-25T18:08:52.184Z,97286.03
2022-08-25T18:11:23.660Z,97289.94
2022-08-25T18:13:53.754Z,97300.09
2022-08-25T18:16:23.314Z,97304.38
2022-08-25T18:18:52.850Z,97304.25
2022-08-25T18:21:22.428Z,97303.56
2022-08-25T18:23:50.510Z,97309.97
2022-08-25T18:26:21.928Z,97302.44
2022-08-25T18:28:53.388Z,97298.97
2022-08-25T18:31:21.327Z,97302.44
2022-08-25T18:33:51.038Z,97300.06
2022-08-25T18:36:21.335Z,97305.13
2022-08-25T18:39:08.934Z,97311.06
2022-08-25T18:41:40.317Z,97305.63
2022-08-25T18:44:10.598Z,97307.16
2022-08-25T18:46:40.275Z,97306.75
2022-08-25T18:49:08.615Z,97312.31
2022-08-25T18:51:37.275Z,97303.03
2022-08-25T18:54:05.903Z,97305.03
2022-08-25T18:56:34.633Z,97313.06
2022-08-25T18:59:49.969Z,97315.59
2022-08-25T19:02:19.123Z,97315.38
2022-08-25T19:04:47.173Z,97316.88
2022-08-25T19:07:14.932Z,97318.06
2022-08-25T19:09:42.725Z,97320.31
2022-08-25T19:12:11.854Z,97312.16
2022-08-25T19:14:50.690Z,97317.94
2022-08-25T19:17:18.467Z,97322.41
2022-08-25T19:19:46.273Z,97319.97
2022-08-25T19:22:37.968Z,97319.72
2022-08-25T19:25:02.426Z,97326.31
2022-08-25T19:27:30.373Z,97329.16
2022-08-25T19:29:58.891Z,97325.06
2022-08-25T19:32:29.212Z,97322.91
2022-08-25T19:34:57.624Z,97323.25
2022-08-25T19:37:28.369Z,97319.28
2022-08-25T19:39:57.692Z,97321.03
2022-08-25T19:42:35.139Z,97322.22
2022-08-25T19:45:10.765Z,97321.47
2022-08-25T19:47:39.981Z,97322.44
2022-08-25T19:50:09.559Z,97326.63
2022-08-25T19:52:37.943Z,97325.00
2022-08-25T19:55:07.720Z,97323.44
2022-08-25T19:57:42.983Z,97327.38
2022-08-25T20:00:30.034Z,97330.69
2022-08-25T20:03:02.574Z,97327.19
2022-08-25T20:05:31.536Z,97328.06
2022-08-25T20:07:59.971Z,97323.47
2022-08-25T20:10:31.854Z,97328.47
2022-08-25T20:13:05.408Z,97330.44
2022-08-25T20:15:39.090Z,97329.97
2022-08-25T20:18:08.065Z,97337.13
2022-08-25T20:20:36.284Z,97329.47
2022-08-25T20:23:27.890Z,97331.69
2022-08-25T20:25:55.763Z,97331.16
2022-08-25T20:28:24.293Z,97332.84
2022-08-25T20:30:52.123Z,97337.47
2022-08-25T20:33:23.121Z,97339.97
2022-08-25T20:35:53.092Z,97334.28
2022-08-25T20:38:21.308Z,97334.03
2022-08-25T20:40:49.195Z,97329.66
2022-08-25T20:43:17.872Z,97333.78
2022-08-25T20:45:49.095Z,97334.06
2022-08-25T20:48:17.592Z,97334.34
2022-08-25T20:50:45.356Z,97334.66
2022-08-25T20:53:25.776Z,97342.88
2022-08-25T20:55:53.587Z,97339.88
2022-08-25T20:58:21.440Z,97341.78
2022-08-25T21:00:49.269Z,97344.00
2022-08-25T21:03:17.026Z,97348.13
2022-08-25T21:05:47.602Z,97343.47
2022-08-25T21:08:21.604Z,97341.03
2022-08-25T21:10:51.652Z,97349.81
2022-08-25T21:13:19.410Z,97350.69
2022-08-25T21:15:49.007Z,97347.97
2022-08-25T21:18:16.775Z,97346.91
2022-08-25T21:20:44.703Z,97348.59
2022-08-25T21:23:12.484Z,97351.03
2022-08-25T21:25:42.174Z,97368.31
2022-08-25T21:28:09.949Z,97358.22
2022-08-25T21:30:44.813Z,97358.78
2022-08-25T21:33:15.437Z,97360.97
2022-08-25T21:35:43.715Z,97361.84
2022-08-25T21:38:11.475Z,97361.56
2022-08-25T21:40:39.846Z,97360.22
2022-08-25T21:43:12.747Z,97359.69
2022-08-25T21:45:46.697Z,97358.31
2022-08-25T21:48:15.403Z,97353.09
2022-08-25T21:50:43.195Z,97361.31
2022-08-25T21:53:11.876Z,97362.97
2022-08-25T21:55:41.901Z,97361.56
2022-08-25T21:58:09.937Z,97363.22
2022-08-25T22:00:37.715Z,97362.38
2022-08-25T22:03:05.632Z,97364.06
2022-08-25T22:05:37.440Z,97361.38
2022-08-25T22:08:05.665Z,97356.47
2022-08-25T22:10:33.524Z,97363.59
2022-08-25T22:13:02.680Z,97363.06
2022-08-25T22:15:30.527Z,97358.97
2022-08-25T22:17:58.306Z,97354.91
2022-08-25T22:20:26.194Z,97354.63
2022-08-25T22:22:56.724Z,97354.09
2022-08-25T22:25:24.542Z,97353.03
2022-08-25T22:27:56.621Z,97350.81
2022-08-25T22:30:26.078Z,97353.56
2022-08-25T22:32:59.027Z,97349.75
2022-08-25T22:35:28.190Z,97346.75
2022-08-25T22:37:56.045Z,97349.75
2022-08-25T22:40:24.026Z,97347.00
2022-08-25T22:42:52.282Z,97348.13
2022-08-25T22:45:20.681Z,97347.59
2022-08-25T22:47:48.738Z,97345.13
2022-08-25T22:50:18.104Z,97348.41
2022-08-25T22:52:46.881Z,97352.81
2022-08-25T22:55:16.356Z,97355.81
2022-08-25T22:57:44.839Z,97350.66
2022-08-25T23:00:15.417Z,97349.00
2022-08-25T23:02:45.285Z,97345.72
2022-08-25T23:05:15.412Z,97345.22
2022-08-25T23:07:43.300Z,97337.03
2022-08-25T23:10:14.101Z,97340.59
2022-08-25T23:12:44.086Z,97337.31
2022-08-25T23:15:14.172Z,97342.25
2022-08-25T23:17:42.030Z,97337.06
2022-08-25T23:20:29.225Z,97335.69
2022-08-25T23:22:58.536Z,97331.59
2022-08-25T23:25:26.369Z,97329.97
2022-08-25T23:27:54.285Z,97334.38
2022-08-25T23:30:22.375Z,97331.63
2022-08-25T23:32:50.213Z,97330.81
2022-08-25T23:35:18.079Z,97326.16
2022-08-25T23:37:47.267Z,97329.13
2022-08-25T23:40:19.362Z,97326.69
2022-08-25T23:42:47.778Z,97333.78
2022-08-25T23:45:16.525Z,97327.22
2022-08-25T23:47:44.361Z,97326.94
2022-08-25T23:50:12.737Z,97326.09
2022-08-25T23:52:40.523Z,97324.19
2022-08-25T23:55:08.815Z,97323.66
2022-08-25T23:57:36.631Z,97320.38
